Time;durP1;ratioP1;P1;durP2;ratioP2;P2;SDS_P1;SDS_P2;PMS_P1;PMS_P2;Temp;Humidity;BMP_temperature;BMP_pressure;BME280_temperature;BME280_humidity;BME280_pressure;Samples;Min_cycle;Max_cycle;Signal;HPM_P1;HPM_P2
2022/10/05 00:02:19;;;;;;;4.07;2.20;;;;;;;11.36;100.00;101527.59;6128236;29;20052;-78
2022/10/05 00:05:27;;;;;;;8.05;2.08;;;;;;;11.34;100.00;101532.88;6127764;29;20095;-78
2022/10/05 00:08:32;;;;;;;4.50;2.22;;;;;;;11.35;100.00;101529.31;6128136;29;20055;-77
2022/10/05 00:11:34;;;;;;;2.78;2.08;;;;;;;11.33;100.00;101531.19;6128182;29;20059;-78
2022/10/05 00:14:36;;;;;;;4.43;2.13;;;;;;;11.38;100.00;101536.25;6127461;29;20071;-77
2022/10/05 00:17:38;;;;;;;5.55;1.90;;;;;;;11.41;100.00;101526.44;6128313;29;20052;-77
2022/10/05 00:20:40;;;;;;;3.67;2.15;;;;;;;11.41;100.00;101526.44;6127467;29;20531;-79
2022/10/05 00:23:42;;;;;;;4.32;1.92;;;;;;;11.45;100.00;101523.69;6127470;29;20059;-77
2022/10/05 00:26:43;;;;;;;4.97;2.22;;;;;;;11.47;100.00;101519.19;6127700;29;20431;-77
2022/10/05 00:29:47;;;;;;;5.63;2.55;;;;;;;11.44;100.00;101530.69;6126859;29;20052;-78
2022/10/05 00:32:49;;;;;;;3.08;2.03;;;;;;;11.46;100.00;101520.97;6127656;29;20063;-78
2022/10/05 00:35:50;;;;;;;3.65;1.77;;;;;;;11.47;100.00;101516.56;6127140;29;20048;-78
2022/10/05 00:38:52;;;;;;;3.97;2.47;;;;;;;11.46;100.00;101520.13;6127565;29;20048;-78
2022/10/05 00:42:07;;;;;;;6.20;2.10;;;;;;;11.49;100.00;101519.97;6127098;29;20058;-78
2022/10/05 00:45:15;;;;;;;8.60;2.47;;;;;;;11.53;100.00;101521.53;6127225;29;20055;-77
2022/10/05 00:48:24;;;;;;;3.85;1.88;;;;;;;11.54;100.00;101525.91;6127161;29;20062;-78
2022/10/05 00:51:28;;;;;;;4.57;2.40;;;;;;;11.53;100.00;101527.66;6127778;29;20063;-77
2022/10/05 00:54:37;;;;;;;4.15;2.08;;;;;;;11.57;100.00;101512.59;6126692;29;20055;-77
2022/10/05 00:57:50;;;;;;;5.28;3.22;;;;;;;11.59;100.00;101514.25;6127572;29;20058;-77
2022/10/05 01:01:03;;;;;;;5.38;2.40;;;;;;;11.61;100.00;101512.38;6126453;29;20052;-76
2022/10/05 01:04:15;;;;;;;3.85;2.30;;;;;;;11.61;100.00;101498.38;6126538;29;20523;-77
2022/10/05 01:07:30;;;;;;;3.72;1.95;;;;;;;11.65;100.00;101486.78;6126863;29;20055;-77
2022/10/05 01:10:38;;;;;;;7.03;2.45;;;;;;;11.67;100.00;101493.69;6126622;29;20504;-77
2022/10/05 01:13:49;;;;;;;3.97;2.17;;;;;;;11.72;100.00;101488.22;6126926;29;20051;-78
2022/10/05 01:16:59;;;;;;;4.47;2.05;;;;;;;11.76;100.00;101481.84;6126844;29;20047;-77
2022/10/05 01:20:12;;;;;;;6.05;1.67;;;;;;;11.79;100.00;101473.81;6126414;29;20056;-77
2022/10/05 01:23:40;;;;;;;6.22;2.30;;;;;;;11.80;100.00;101475.53;6126594;29;20405;-77
2022/10/05 01:27:08;;;;;;;5.78;2.25;;;;;;;11.78;100.00;101466.84;6126929;29;20092;-78
2022/10/05 01:30:13;;;;;;;3.28;2.15;;;;;;;11.85;100.00;101463.00;6126065;29;20059;-78
2022/10/05 01:33:24;;;;;;;4.78;2.30;;;;;;;11.90;100.00;101470.72;6126282;29;20055;-77
2022/10/05 01:36:32;;;;;;;2.53;1.85;;;;;;;11.90;100.00;101476.84;6126001;29;20058;-77
2022/10/05 01:39:42;;;;;;;2.58;1.70;;;;;;;11.93;100.00;101470.56;6126092;29;20432;-77
2022/10/05 01:42:55;;;;;;;6.93;2.17;;;;;;;11.94;100.00;101467.00;6125810;29;20055;-77
2022/10/05 01:46:06;;;;;;;7.22;2.25;;;;;;;11.98;100.00;101457.19;6125729;29;20048;-77
2022/10/05 01:49:22;;;;;;;3.25;2.03;;;;;;;11.98;100.00;101458.03;6126204;29;20415;-77
2022/10/05 01:52:33;;;;;;;6.32;2.33;;;;;;;12.00;100.00;101457.97;6125657;29;20419;-75
2022/10/05 01:55:44;;;;;;;7.97;2.33;;;;;;;12.03;100.00;101447.28;6125550;29;20044;-77
2022/10/05 01:58:56;;;;;;;3.83;2.13;;;;;;;12.04;100.00;101449.84;6126195;29;20058;-77
2022/10/05 02:02:03;;;;;;;3.80;2.50;;;;;;;12.06;100.00;101439.22;6125717;29;20047;-77
2022/10/05 02:05:10;;;;;;;4.88;2.28;;;;;;;12.08;100.00;101434.72;6125555;29;20048;-77
2022/10/05 02:08:16;;;;;;;5.07;2.60;;;;;;;12.09;100.00;101437.31;6125870;29;20051;-78
2022/10/05 02:11:18;;;;;;;3.20;2.10;;;;;;;12.06;100.00;101429.53;6123302;29;20063;-78
2022/10/05 02:14:25;;;;;;;3.47;2.17;;;;;;;12.07;100.00;101425.97;6125143;29;20048;-78
2022/10/05 02:17:33;;;;;;;3.22;2.17;;;;;;;12.07;100.00;101412.81;6126034;29;20052;-78
2022/10/05 02:20:39;;;;;;;6.90;2.73;;;;;;;12.06;100.00;101423.44;6124921;29;20425;-77
2022/10/05 02:23:44;;;;;;;4.13;2.38;;;;;;;12.09;100.00;101429.41;6125758;29;20052;-80
2022/10/05 02:26:47;;;;;;;3.88;2.03;;;;;;;12.10;100.00;101417.06;6125890;29;20078;-77
2022/10/05 02:29:51;;;;;;;4.60;2.30;;;;;;;12.13;100.00;101423.06;6125476;29;20047;-77
2022/10/05 02:32:58;;;;;;;3.28;1.60;;;;;;;12.15;100.00;101420.34;6125667;29;20055;-77
2022/10/05 02:36:01;;;;;;;7.82;2.50;;;;;;;12.14;100.00;101416.00;6125204;29;20496;-77
2022/10/05 02:39:11;;;;;;;4.68;2.53;;;;;;;12.16;100.00;101419.41;6125616;29;20048;-77
2022/10/05 02:42:21;;;;;;;4.15;2.15;;;;;;;12.15;100.00;101415.91;6125350;29;20055;-77
2022/10/05 02:45:32;;;;;;;7.88;2.35;;;;;;;12.15;100.00;101420.34;6124992;29;20052;-78
2022/10/05 02:48:44;;;;;;;5.82;2.50;;;;;;;12.15;100.00;101423.81;6125513;29;20063;-78
2022/10/05 02:51:56;;;;;;;3.03;2.10;;;;;;;12.12;100.00;101417.84;6124883;29;20048;-77
2022/10/05 02:55:05;;;;;;;4.95;2.28;;;;;;;12.06;100.00;101410.25;6126057;29;20415;-77
2022/10/05 02:58:12;;;;;;;4.32;2.40;;;;;;;12.06;100.00;101418.16;6128349;29;20052;-78
2022/10/05 03:01:23;;;;;;;5.50;2.63;;;;;;;12.03;100.00;101421.78;6125691;29;20063;-78
2022/10/05 03:04:36;;;;;;;4.60;2.25;;;;;;;12.04;100.00;101414.75;6127769;29;20052;-77
2022/10/05 03:07:43;;;;;;;4.45;2.92;;;;;;;12.06;100.00;101407.63;6126243;29;20427;-77
2022/10/05 03:10:59;;;;;;;4.47;2.20;;;;;;;12.04;100.00;101406.84;6127807;29;20063;-77
2022/10/05 03:14:06;;;;;;;6.57;2.10;;;;;;;12.07;100.00;101396.16;6126022;29;20055;-77
2022/10/05 03:17:16;;;;;;;4.22;2.38;;;;;;;12.16;100.00;101385.16;6127561;29;20419;-76
2022/10/05 03:20:32;;;;;;;6.72;3.15;;;;;;;12.19;100.00;101383.22;6129407;29;20052;-78
2022/10/05 03:23:44;;;;;;;8.40;3.08;;;;;;;12.19;100.00;101375.31;6129626;29;20052;-77
2022/10/05 03:26:54;;;;;;;4.68;2.50;;;;;;;12.21;100.00;101377.88;6129412;29;20051;-77
2022/10/05 03:30:02;;;;;;;2.85;2.20;;;;;;;12.19;100.00;101370.03;6128990;29;20048;-77
2022/10/05 03:33:16;;;;;;;7.60;3.08;;;;;;;12.16;100.00;101366.69;6129426;29;20063;-78
2022/10/05 03:36:26;;;;;;;2.92;1.90;;;;;;;12.20;100.00;101365.63;6128835;29;20047;-78
2022/10/05 03:39:34;;;;;;;7.22;2.63;;;;;;;12.22;100.00;101355.88;6129008;29;20428;-77
2022/10/05 03:42:47;;;;;;;6.35;2.97;;;;;;;12.24;100.00;101345.25;6128877;29;20052;-78
2022/10/05 03:45:58;;;;;;;7.38;2.78;;;;;;;12.26;100.00;101338.09;6128678;29;20047;-77
2022/10/05 03:49:08;;;;;;;6.75;2.53;;;;;;;12.29;100.00;101345.88;6129045;29;20179;-77
2022/10/05 03:52:16;;;;;;;3.13;2.15;;;;;;;12.30;100.00;101337.88;6127272;29;20056;-78
2022/10/05 03:55:25;;;;;;;5.00;2.58;;;;;;;12.33;100.00;101350.06;6126635;29;20051;-77
2022/10/05 03:58:32;;;;;;;5.18;2.30;;;;;;;12.33;100.00;101350.06;6126959;29;20058;-77
2022/10/05 04:01:39;;;;;;;5.03;2.50;;;;;;;12.33;100.00;101340.34;6124896;29;20505;-77
2022/10/05 04:04:46;;;;;;;8.32;2.38;;;;;;;12.34;100.00;101347.31;6125048;29;20059;-78
2022/10/05 04:07:55;;;;;;;6.90;2.67;;;;;;;12.36;100.00;101339.38;6124439;29;20056;-77
2022/10/05 04:10:59;;;;;;;3.03;2.25;;;;;;;12.38;100.00;101340.13;6127314;29;20048;-77
2022/10/05 04:14:04;;;;;;;4.15;2.50;;;;;;;12.33;100.00;101348.25;6127697;29;20986;-79
2022/10/05 04:17:12;;;;;;;5.93;2.45;;;;;;;12.33;100.00;101350.06;6128164;29;20047;-77
2022/10/05 04:20:19;;;;;;;5.07;2.63;;;;;;;12.28;100.00;101338.91;6127791;29;20639;-77
2022/10/05 04:23:33;;;;;;;9.48;2.45;;;;;;;12.26;100.00;101340.75;6127940;29;20419;-77
2022/10/05 04:26:40;;;;;;;5.25;2.47;;;;;;;12.25;100.00;101333.78;6127610;29;20114;-78
2022/10/05 04:29:48;;;;;;;7.13;2.78;;;;;;;12.26;100.00;101327.56;6127829;29;20060;-78
2022/10/05 04:32:52;;;;;;;4.28;2.45;;;;;;;12.27;100.00;101338.03;6128082;29;20055;-78
2022/10/05 04:36:08;;;;;;;4.82;2.42;;;;;;;12.27;100.00;101327.50;6127398;29;20054;-78
2022/10/05 04:39:23;;;;;;;9.68;4.05;;;;;;;12.30;100.00;101323.84;6127885;29;20051;-78
2022/10/05 04:42:32;;;;;;;5.38;2.55;;;;;;;12.27;100.00;101322.22;6127159;29;20047;-78
2022/10/05 04:45:58;;;;;;;6.05;2.95;;;;;;;12.25;100.00;101329.34;6127263;29;20052;-78
2022/10/05 04:49:15;;;;;;;4.85;2.42;;;;;;;12.22;100.00;101336.56;6123596;29;20053;-77
2022/10/05 04:52:23;;;;;;;5.35;2.45;;;;;;;12.21;100.00;101335.69;6127103;29;20130;-78
2022/10/05 04:55:35;;;;;;;5.03;2.55;;;;;;;12.21;100.00;101332.22;6126788;29;20452;-78
2022/10/05 04:58:49;;;;;;;5.03;2.78;;;;;;;12.18;100.00;101333.25;6127362;29;20055;-77
2022/10/05 05:02:05;;;;;;;5.55;2.97;;;;;;;12.16;100.00;101335.09;6126934;29;20056;-77
2022/10/05 05:05:24;;;;;;;6.05;2.28;;;;;;;12.13;100.00;101332.63;6126516;29;20047;-78
2022/10/05 05:08:42;;;;;;;5.03;2.55;;;;;;;12.08;100.00;101334.63;6127369;29;20059;-77
2022/10/05 05:12:02;;;;;;;3.72;2.20;;;;;;;12.02;100.00;101325.25;6126900;29;20059;-78
2022/10/05 05:15:24;;;;;;;7.30;2.67;;;;;;;12.00;100.00;101328.91;6126222;29;20043;-77
2022/10/05 05:18:45;;;;;;;6.95;2.67;;;;;;;11.98;100.00;101318.41;6126972;29;20051;-78
2022/10/05 05:21:53;;;;;;;8.38;2.53;;;;;;;11.99;100.00;101312.25;6126265;29;20058;-77
2022/10/05 05:25:16;;;;;;;10.43;2.93;;;;;;;11.99;100.00;101320.16;6125530;29;20060;-77
2022/10/05 05:28:28;;;;;;;5.07;2.85;;;;;;;12.01;100.00;101330.59;6124396;29;20291;-77
2022/10/05 05:31:38;;;;;;;3.92;2.75;;;;;;;12.01;100.00;101326.19;6126140;29;20058;-77
2022/10/05 05:34:49;;;;;;;4.68;2.90;;;;;;;12.03;100.00;101326.09;6123670;29;20048;-78
2022/10/05 05:38:01;;;;;;;7.80;3.13;;;;;;;12.05;100.00;101329.53;6126134;29;20055;-78
2022/10/05 05:41:09;;;;;;;4.28;2.40;;;;;;;12.07;100.00;101330.28;6123492;29;20423;-76
2022/10/05 05:44:20;;;;;;;4.60;2.30;;;;;;;12.09;100.00;101324.03;6124776;29;20051;-76
2022/10/05 05:47:29;;;;;;;7.40;2.65;;;;;;;12.11;100.00;101330.06;6116301;29;20054;-78
2022/10/05 05:50:47;;;;;;;6.82;3.10;;;;;;;12.15;100.00;101330.75;6125735;29;20059;-77
2022/10/05 05:53:53;;;;;;;4.82;2.63;;;;;;;12.19;100.00;101329.66;6125896;29;20156;-77
2022/10/05 05:57:03;;;;;;;6.78;2.70;;;;;;;12.21;100.00;101330.44;6126074;29;20055;-78
2022/10/05 06:00:07;;;;;;;;;;;;;;;12.24;100.00;101329.44;6126492;29;20087;-78
2022/10/05 06:03:14;;;;;;;5.65;3.33;;;;;;;12.25;100.00;101337.25;6125986;29;19922;-77
2022/10/05 06:06:17;;;;;;;4.97;2.72;;;;;;;12.26;100.00;101336.31;6211807;23;20029;-79
2022/10/05 06:09:24;;;;;;;4.75;3.08;;;;;;;12.30;100.00;101331.75;6197969;28;20049;-79
2022/10/05 06:12:32;;;;;;;5.80;2.53;;;;;;;12.33;100.00;101335.09;6197780;28;20050;-78
2022/10/05 06:15:40;;;;;;;3.15;2.33;;;;;;;12.36;100.00;101334.09;6197889;28;20483;-77
2022/10/05 06:18:44;;;;;;;8.52;3.20;;;;;;;12.34;100.00;101331.50;6197630;28;20054;-78
2022/10/05 06:21:51;;;;;;;5.22;2.38;;;;;;;12.38;100.00;101340.97;6197085;28;20054;-77
2022/10/05 06:25:05;;;;;;;7.70;3.60;;;;;;;12.43;100.00;101340.72;6197061;28;20046;-79
2022/10/05 06:28:10;;;;;;;4.35;2.25;;;;;;;12.48;100.00;101337.84;6201606;28;20065;-78
2022/10/05 06:31:24;;;;;;;6.10;2.78;;;;;;;12.52;100.00;101342.91;6202217;28;20053;-78
2022/10/05 06:34:42;;;;;;;6.80;2.30;;;;;;;12.55;100.00;101337.47;6202374;28;20053;-79
2022/10/05 06:37:59;;;;;;;3.40;2.15;;;;;;;12.57;100.00;101338.22;6202148;28;20051;-77
2022/10/05 06:41:15;;;;;;;5.20;2.72;;;;;;;12.63;100.00;101337.09;6202123;28;20054;-78
2022/10/05 06:44:23;;;;;;;8.68;3.33;;;;;;;12.64;100.00;101341.41;6201606;28;20054;-78
2022/10/05 06:47:35;;;;;;;5.50;2.88;;;;;;;12.68;100.00;101327.13;6202298;28;20061;-77
2022/10/05 06:50:42;;;;;;;7.45;3.08;;;;;;;12.71;100.00;101332.22;6201820;28;20426;-79
2022/10/05 06:53:52;;;;;;;5.55;2.75;;;;;;;12.75;100.00;101325.88;6202182;28;20054;-78
2022/10/05 06:57:01;;;;;;;11.50;2.83;;;;;;;12.78;100.00;101324.88;6202115;28;20410;-79
2022/10/05 07:00:14;;;;;;;3.35;2.15;;;;;;;12.80;100.00;101315.91;6202033;28;20054;-78
2022/10/05 07:03:27;;;;;;;5.13;2.95;;;;;;;12.80;100.00;101315.91;6198965;28;20070;-78
2022/10/05 07:06:35;;;;;;;5.82;3.00;;;;;;;12.80;100.00;101313.28;6201065;28;20051;-78
2022/10/05 07:09:45;;;;;;;5.22;2.67;;;;;;;12.83;100.00;101321.03;6202056;28;20058;-78
2022/10/05 07:13:01;;;;;;;3.38;2.53;;;;;;;12.86;100.00;101314.75;6198068;28;20058;-78
2022/10/05 07:16:11;;;;;;;4.90;3.15;;;;;;;12.90;100.00;101327.69;6201438;28;20042;-77
2022/10/05 07:19:26;;;;;;;6.68;3.55;;;;;;;12.97;100.00;101311.53;6201664;28;20054;-77
2022/10/05 07:22:51;;;;;;;6.80;3.33;;;;;;;13.07;100.00;101313.56;6201168;28;20519;-78
2022/10/05 07:26:02;;;;;;;7.53;3.45;;;;;;;13.20;100.00;101317.25;6200962;28;20054;-78
2022/10/05 07:29:23;;;;;;;6.03;3.25;;;;;;;13.27;100.00;101323.09;6201491;28;20042;-77
2022/10/05 07:32:33;;;;;;;7.90;2.13;;;;;;;13.33;100.00;101321.88;6201200;28;20499;-78
2022/10/05 07:39:09;;;;;;;5.13;2.85;;;;;;;13.45;100.00;101322.06;6195839;28;20046;-77
2022/10/05 07:42:31;;;;;;;6.65;2.83;;;;;;;13.51;100.00;101330.56;6201221;28;20055;-79
2022/10/05 07:45:40;;;;;;;6.40;3.35;;;;;;;13.53;100.00;101334.81;6200790;28;20053;-77
2022/10/05 07:49:02;;;;;;;6.05;3.10;;;;;;;13.59;100.00;101338.91;6201058;28;20399;-77
2022/10/05 07:52:12;;;;;;;7.10;3.28;;;;;;;13.63;100.00;101341.31;6200608;28;20046;-77
2022/10/05 07:55:19;;;;;;;9.23;3.60;;;;;;;13.66;100.00;101337.63;6200579;28;20445;-78
2022/10/05 07:58:26;;;;;;;5.28;2.97;;;;;;;13.66;100.00;101333.19;6200899;28;20051;-78
2022/10/05 08:01:31;;;;;;;6.07;3.10;;;;;;;13.69;100.00;101334.81;6200722;28;20058;-79
2022/10/05 08:04:40;;;;;;;5.65;2.65;;;;;;;13.74;100.00;101338.03;6200593;28;20053;-78
2022/10/05 08:07:43;;;;;;;7.30;3.28;;;;;;;13.77;100.00;101332.59;6200454;28;20054;-77
2022/10/05 08:10:53;;;;;;;11.93;2.63;;;;;;;13.81;100.00;101339.41;6199981;28;20058;-76
2022/10/05 08:14:00;;;;;;;5.60;2.83;;;;;;;13.86;100.00;101340.00;6175892;28;20054;-78
2022/10/05 08:17:08;;;;;;;7.68;3.42;;;;;;;13.87;100.00;101341.69;6176741;28;20135;-79
2022/10/05 08:20:29;;;;;;;6.00;3.28;;;;;;;13.93;100.00;101327.25;6175932;28;20495;-79
2022/10/05 08:23:38;;;;;;;5.75;3.28;;;;;;;13.95;100.00;101328.88;6176990;28;20055;-80
2022/10/05 08:26:44;;;;;;;;;;;;;;;13.95;100.00;101336.81;6176454;28;20054;-78
2022/10/05 08:29:55;;;;;;;5.97;3.17;;;;;;;13.99;100.00;101340.13;6176253;28;19922;-78
2022/10/05 08:33:04;;;;;;;4.10;2.97;;;;;;;14.10;100.00;101342.13;6176461;28;20531;-79
2022/10/05 08:36:10;;;;;;;6.95;3.00;;;;;;;14.14;100.00;101335.75;6176123;28;20423;-80
2022/10/05 08:39:18;;;;;;;5.95;3.17;;;;;;;14.18;100.00;101330.19;6220429;28;20449;-79
2022/10/05 08:42:39;;;;;;;5.35;2.90;;;;;;;14.20;100.00;101336.22;6224408;28;20050;-80
2022/10/05 08:46:17;;;;;;;5.82;2.85;;;;;;;14.25;100.00;101333.28;6224558;28;20057;-78
2022/10/05 08:49:55;;;;;;;6.13;2.80;;;;;;;14.28;100.00;101330.47;6224153;28;20046;-77
2022/10/05 08:53:18;;;;;;;4.60;2.42;;;;;;;14.31;100.00;101334.75;6224061;28;20058;-81
2022/10/05 08:56:40;;;;;;;5.53;2.42;;;;;;;14.32;100.00;101337.28;6224015;28;20050;-79
2022/10/05 09:00:02;;;;;;;8.30;2.22;;;;;;;14.36;100.00;101335.31;6223979;28;20065;-80
2022/10/05 09:03:21;;;;;;;5.40;2.83;;;;;;;14.38;100.00;101330.78;6224459;28;20072;-78
2022/10/05 09:06:45;;;;;;;3.77;2.30;;;;;;;14.42;100.00;101327.00;6223732;28;20413;-82
2022/10/05 09:10:16;;;;;;;10.40;2.80;;;;;;;14.42;100.00;101333.16;6223595;28;20464;-81
2022/10/05 09:13:30;;;;;;;5.25;2.67;;;;;;;14.52;100.00;101332.63;6224545;28;20061;-81
2022/10/05 09:16:48;;;;;;;3.78;2.55;;;;;;;14.55;100.00;101332.44;6223844;28;20050;-82
2022/10/05 09:20:07;;;;;;;7.68;2.55;;;;;;;14.56;100.00;101329.69;6223880;28;20041;-81
2022/10/05 09:23:13;;;;;;;3.22;2.03;;;;;;;14.64;100.00;101345.13;6224097;28;20050;-80
2022/10/05 09:26:43;;;;;;;4.10;2.13;;;;;;;14.73;100.00;101336.63;6224062;28;20053;-80
2022/10/05 09:30:06;;;;;;;4.25;1.88;;;;;;;14.73;100.00;101333.97;6223929;28;20046;-80
2022/10/05 09:33:32;;;;;;;2.88;1.92;;;;;;;14.75;100.00;101336.50;6225049;28;20524;-80
2022/10/05 09:37:07;;;;;;;2.85;1.85;;;;;;;14.85;100.00;101343.81;6223119;28;20049;-80
2022/10/05 09:40:35;;;;;;;6.28;2.08;;;;;;;14.90;100.00;101325.84;6223489;28;20146;-80
2022/10/05 09:44:18;;;;;;;3.53;1.85;;;;;;;14.89;100.00;101328.56;6223296;28;20046;-76
2022/10/05 09:47:43;;;;;;;3.25;1.88;;;;;;;14.85;100.00;101321.75;6222793;28;20052;-78
2022/10/05 09:51:06;;;;;;;5.28;2.30;;;;;;;14.83;100.00;101328.97;6224648;28;20046;-78
2022/10/05 09:54:44;;;;;;;4.25;2.50;;;;;;;14.81;100.00;101321.13;6222805;28;20057;-78
2022/10/05 09:58:27;;;;;;;2.97;2.03;;;;;;;14.79;100.00;101322.16;6223062;28;20069;-77
2022/10/05 10:01:40;;;;;;;3.53;2.15;;;;;;;14.86;100.00;101328.78;6206185;28;20543;-78
2022/10/05 10:05:06;;;;;;;3.35;2.17;;;;;;;14.82;100.00;101321.97;6223463;28;20046;-79
2022/10/05 10:08:21;;;;;;;4.43;2.42;;;;;;;14.79;100.00;101325.66;6223699;28;20049;-78
2022/10/05 10:11:40;;;;;;;6.47;2.25;;;;;;;14.75;100.00;101321.50;6218989;28;20054;-80
2022/10/05 10:15:16;;;;;;;3.33;2.45;;;;;;;14.79;100.00;101315.06;6198667;28;20046;-79
2022/10/05 10:18:34;;;;;;;5.57;2.58;;;;;;;14.78;100.00;101318.66;6198542;28;20061;-79
2022/10/05 10:22:18;;;;;;;3.83;3.03;;;;;;;14.88;100.00;101305.72;6198065;28;20058;-79
2022/10/05 10:25:35;;;;;;;3.47;2.45;;;;;;;14.92;100.00;101301.94;6198058;28;20057;-79
2022/10/05 10:29:16;;;;;;;3.45;2.38;;;;;;;14.91;100.00;101292.28;6198374;28;20057;-79
2022/10/05 10:33:02;;;;;;;2.88;2.47;;;;;;;15.00;100.00;101298.81;6196666;28;20050;-78
2022/10/05 10:36:12;;;;;;;4.03;2.60;;;;;;;15.08;100.00;101288.56;6197966;28;20050;-77
2022/10/05 10:39:20;;;;;;;3.60;2.63;;;;;;;15.16;100.00;101280.97;6197954;28;20054;-78
2022/10/05 10:42:33;;;;;;;2.42;2.13;;;;;;;15.22;100.00;101270.88;6197744;28;20074;-78
2022/10/05 10:45:48;;;;;;;3.65;2.00;;;;;;;15.35;100.00;101272.69;6197945;28;20152;-78
2022/10/05 10:48:57;;;;;;;4.75;2.45;;;;;;;15.40;100.00;101271.47;6198695;28;20050;-79
2022/10/05 10:52:17;;;;;;;3.25;2.17;;;;;;;15.48;100.00;101258.56;6198856;28;20054;-79
2022/10/05 10:55:33;;;;;;;8.55;2.63;;;;;;;15.52;100.00;101264.50;6198194;28;20437;-78
2022/10/05 10:59:15;;;;;;;3.08;1.80;;;;;;;15.55;100.00;101266.13;6197840;28;20427;-79
2022/10/05 11:02:36;;;;;;;5.18;2.83;;;;;;;15.54;100.00;101262.63;6168245;28;20053;-77
2022/10/05 11:05:59;;;;;;;2.70;1.75;;;;;;;15.60;100.00;101258.72;6197497;28;20047;-79
2022/10/05 11:09:20;;;;;;;3.20;1.67;;;;;;;15.62;100.00;101251.50;6198010;28;20057;-79
2022/10/05 11:12:54;;;;;;;2.70;1.85;;;;;;;15.68;99.91;101256.44;6198774;28;20046;-79
2022/10/05 11:16:44;;;;;;;2.97;2.10;;;;;;;15.81;99.26;101251.19;6202297;28;20050;-78
2022/10/05 11:19:51;;;;;;;1.83;1.27;;;;;;;15.82;100.00;101248.41;6202000;28;20050;-78
2022/10/05 11:22:59;;;;;;;3.30;1.60;;;;;;;15.87;100.00;101241.00;6201865;28;20137;-77
2022/10/05 11:26:26;;;;;;;3.80;1.98;;;;;;;15.92;99.09;101232.72;6201475;28;20055;-78
2022/10/05 11:30:16;;;;;;;2.40;1.58;;;;;;;15.91;100.00;101231.88;6202615;28;20057;-78
2022/10/05 11:33:41;;;;;;;1.83;1.45;;;;;;;15.98;100.00;101225.19;6200912;28;20510;-78
2022/10/05 11:37:14;;;;;;;1.98;1.50;;;;;;;16.09;98.92;101218.34;6202419;28;20505;-79
2022/10/05 11:40:46;;;;;;;1.88;1.48;;;;;;;16.17;99.16;101224.81;6177916;28;20054;-77
2022/10/05 11:44:38;;;;;;;3.90;1.58;;;;;;;16.30;98.17;101221.28;6195435;28;20524;-77
2022/10/05 11:47:51;;;;;;;3.25;1.55;;;;;;;16.37;99.03;101209.31;6201897;28;20050;-78
2022/10/05 11:51:16;;;;;;;8.20;1.35;;;;;;;16.54;94.96;101193.03;6202021;28;20054;-78
2022/10/05 11:54:36;;;;;;;2.03;1.45;;;;;;;16.72;93.73;101197.06;6201088;28;20061;-79
2022/10/05 11:57:41;;;;;;;3.13;1.70;;;;;;;16.76;93.43;101187.09;6201688;28;20050;-75
2022/10/05 12:00:46;;;;;;;1.90;1.45;;;;;;;16.87;93.01;101181.84;6200797;28;20418;-77
2022/10/05 12:03:58;;;;;;;2.28;1.25;;;;;;;16.94;92.76;101191.06;6200993;28;20073;-78
2022/10/05 12:07:11;;;;;;;1.88;1.30;;;;;;;17.07;90.36;101179.50;6296701;22;20028;-80
2022/10/05 12:10:24;;;;;;;2.45;1.48;;;;;;;17.21;88.20;101168.72;6250958;28;20183;-79
2022/10/05 12:13:35;;;;;;;2.65;1.48;;;;;;;17.31;90.65;101166.25;6252204;28;20045;-80
2022/10/05 12:16:44;;;;;;;6.25;2.08;;;;;;;17.52;89.94;101172.56;6241680;28;20049;-80
2022/10/05 12:19:53;;;;;;;2.38;1.38;;;;;;;17.75;87.32;101158.41;6228388;28;20053;-77
2022/10/05 12:23:02;;;;;;;3.20;1.30;;;;;;;17.97;86.52;101152.28;6227291;28;20132;-80
2022/10/05 12:26:06;;;;;;;3.80;1.10;;;;;;;18.07;87.98;101141.75;6224180;28;20053;-80
2022/10/05 12:29:15;;;;;;;1.95;1.30;;;;;;;18.33;84.08;101134.38;6225460;28;20476;-79
2022/10/05 12:32:21;;;;;;;1.85;1.52;;;;;;;18.63;83.19;101125.75;6225258;28;20394;-82
2022/10/05 12:35:31;;;;;;;2.95;1.50;;;;;;;18.62;82.58;101129.41;6225967;28;20505;-82
2022/10/05 12:38:38;;;;;;;2.20;1.20;;;;;;;18.77;81.42;101131.81;6233537;28;20099;-84
2022/10/05 12:41:48;;;;;;;1.25;1.10;;;;;;;18.97;81.92;101123.00;6250005;28;20045;-84
2022/10/05 12:45:02;;;;;;;2.03;1.50;;;;;;;19.09;79.23;101122.00;6243548;28;20406;-82
2022/10/05 12:48:22;;;;;;;3.15;1.45;;;;;;;18.83;80.87;101121.50;6250838;28;20523;-82
2022/10/05 12:51:35;;;;;;;2.88;1.48;;;;;;;18.78;81.11;101109.53;6250661;28;20045;-82
2022/10/05 12:54:45;;;;;;;3.47;1.50;;;;;;;18.75;79.98;101108.78;6250111;28;20657;-83
2022/10/05 12:57:58;;;;;;;4.53;1.30;;;;;;;19.00;80.58;101109.44;6243150;28;20052;-82
2022/10/05 13:01:08;;;;;;;1.92;1.42;;;;;;;19.14;77.46;101101.16;6249513;28;20057;-82
2022/10/05 13:04:21;;;;;;;2.13;1.42;;;;;;;19.24;77.22;101103.88;6249419;28;20053;-82
2022/10/05 13:07:41;;;;;;;1.95;1.20;;;;;;;19.29;77.02;101104.34;6251101;28;20045;-83
2022/10/05 13:10:48;;;;;;;3.85;1.40;;;;;;;19.44;76.71;101099.53;6252591;28;20059;-82
2022/10/05 13:13:58;;;;;;;1.10;1.00;;;;;;;19.50;76.07;101101.69;6249695;28;20417;-83
2022/10/05 13:17:07;;;;;;;3.22;1.65;;;;;;;19.33;75.72;101095.13;6252856;28;20045;-83
2022/10/05 13:20:14;;;;;;;2.58;1.40;;;;;;;19.49;75.82;101097.34;6248829;28;20053;-82
2022/10/05 13:23:23;;;;;;;1.73;1.30;;;;;;;19.41;77.55;101089.97;6249694;28;20409;-83
2022/10/05 13:26:32;;;;;;;2.95;1.40;;;;;;;19.60;75.83;101077.75;6248316;28;20050;-84
2022/10/05 13:29:40;;;;;;;1.85;1.40;;;;;;;19.57;74.41;101083.31;6249281;28;20053;-83
2022/10/05 13:32:46;;;;;;;3.08;1.40;;;;;;;19.59;74.40;101082.25;6249030;28;20060;-82
2022/10/05 13:35:56;;;;;;;3.13;2.13;;;;;;;19.73;73.45;101075.75;6234704;28;20120;-83
2022/10/05 13:39:05;;;;;;;3.90;1.33;;;;;;;19.83;71.07;101073.13;6244966;28;20045;-79
2022/10/05 13:42:13;;;;;;;2.42;1.60;;;;;;;19.69;73.98;101079.66;6247326;28;20061;-82
2022/10/05 13:45:19;;;;;;;3.38;1.92;;;;;;;19.56;74.26;101071.81;6248907;28;20434;-82
2022/10/05 13:48:40;;;;;;;2.28;1.77;;;;;;;19.77;72.62;101074.50;6248039;28;20041;-82
2022/10/05 13:51:48;;;;;;;2.30;1.40;;;;;;;19.88;72.47;101078.88;6235474;28;20057;-83
2022/10/05 13:54:58;;;;;;;1.10;1.00;;;;;;;19.92;73.22;101073.16;6241147;28;20049;-82
2022/10/05 13:58:04;;;;;;;1.65;1.30;;;;;;;19.86;72.10;101070.19;6241538;28;20063;-82
2022/10/05 14:01:14;;;;;;;4.50;1.05;;;;;;;19.92;72.02;101070.47;6247880;28;20180;-83
2022/10/05 14:04:17;;;;;;;;;;;;;;;19.91;72.90;101076.81;6248418;28;20056;-80
2022/10/05 14:07:25;;;;;;;1.77;1.08;;;;;;;19.83;72.70;101073.97;6248142;28;19979;-83
2022/10/05 14:10:34;;;;;;;3.60;1.35;;;;;;;19.73;72.02;101089.06;6240640;28;20049;-85
2022/10/05 14:13:46;;;;;;;3.20;1.48;;;;;;;19.65;72.33;101089.72;6224117;28;20060;-83
2022/10/05 14:16:51;;;;;;;2.05;1.00;;;;;;;19.55;73.75;101087.97;6237213;28;20060;-84
2022/10/05 14:19:58;;;;;;;3.20;1.38;;;;;;;19.60;73.41;101083.06;6251611;28;20049;-84
2022/10/05 14:23:02;;;;;;;2.72;1.20;;;;;;;19.45;73.28;101071.91;6248718;28;20425;-82
2022/10/05 14:26:18;;;;;;;0.98;0.82;;;;;;;19.22;74.50;101072.06;6248041;28;20053;-79
2022/10/05 14:29:23;;;;;;;1.25;0.90;;;;;;;19.20;74.96;101071.31;6245065;28;20049;-77
2022/10/05 14:32:27;;;;;;;1.90;0.90;;;;;;;19.04;75.61;101078.09;6246026;28;20501;-77
2022/10/05 14:35:29;;;;;;;1.45;1.02;;;;;;;18.84;77.25;101077.06;6242727;28;20053;-82
2022/10/05 14:38:49;;;;;;;1.40;1.05;;;;;;;18.91;75.26;101071.09;6248010;28;20052;-80
2022/10/05 14:41:52;;;;;;;2.28;1.25;;;;;;;18.81;77.18;101062.19;6248843;28;20057;-79
2022/10/05 14:44:59;;;;;;;3.13;1.23;;;;;;;18.68;78.22;101059.66;6240427;28;20406;-82
2022/10/05 14:48:10;;;;;;;1.08;0.90;;;;;;;18.63;77.85;101061.03;6248443;28;20044;-81
2022/10/05 14:51:23;;;;;;;1.13;0.85;;;;;;;18.56;78.60;101052.69;6252910;28;20049;-79
2022/10/05 14:54:34;;;;;;;1.30;1.00;;;;;;;18.52;80.11;101041.44;6253139;28;20045;-79